createdAt,value
2019-03-26T00:01:48.326Z,67.76
2019-03-26T00:04:19.531Z,67.74
2019-03-26T00:06:50.568Z,68.24
2019-03-26T00:09:22.663Z,68.30
2019-03-26T00:11:56.401Z,68.33
2019-03-26T00:14:27.466Z,68.45
2019-03-26T00:16:58.468Z,68.25
2019-03-26T00:19:29.577Z,68.48
2019-03-26T00:22:00.710Z,68.73
2019-03-26T00:24:31.823Z,69.02
2019-03-26T00:27:04.089Z,69.11
2019-03-26T00:29:35.272Z,69.23
2019-03-26T00:32:06.355Z,69.33
2019-03-26T00:34:37.516Z,69.18
2019-03-26T00:37:08.682Z,69.30
2019-03-26T00:39:39.833Z,69.36
2019-03-26T00:42:10.817Z,69.52
2019-03-26T00:44:41.895Z,69.61
2019-03-26T00:47:14.526Z,69.29
2019-03-26T00:49:45.604Z,69.29
2019-03-26T00:52:16.650Z,69.15
2019-03-26T00:54:47.749Z,69.25
2019-03-26T00:57:20.609Z,69.69
2019-03-26T00:59:51.804Z,69.44
2019-03-26T01:02:22.848Z,69.55
2019-03-26T01:04:53.933Z,69.66
2019-03-26T01:07:24.982Z,69.89
2019-03-26T01:09:56.153Z,69.83
2019-03-26T01:12:27.181Z,69.76
2019-03-26T01:14:58.312Z,69.62
2019-03-26T01:17:29.337Z,69.63
2019-03-26T01:20:02.664Z,69.82
2019-03-26T01:22:35.257Z,69.76
2019-03-26T01:25:07.195Z,69.74
2019-03-26T01:27:38.256Z,69.61
2019-03-26T01:30:09.438Z,69.80
2019-03-26T01:32:40.507Z,69.79
2019-03-26T01:35:11.507Z,70.06
2019-03-26T01:37:43.361Z,69.84
2019-03-26T01:40:14.403Z,70.00
2019-03-26T01:42:45.612Z,69.96
2019-03-26T01:45:16.654Z,70.03
2019-03-26T01:47:47.662Z,70.19
2019-03-26T01:50:18.705Z,70.10
2019-03-26T01:52:49.787Z,70.39
2019-03-26T01:55:20.828Z,70.27
2019-03-26T01:57:51.864Z,70.20
2019-03-26T02:00:23.032Z,70.41
2019-03-26T02:02:58.342Z,70.36
2019-03-26T02:05:29.644Z,70.33
2019-03-26T02:08:00.669Z,70.59
2019-03-26T02:10:31.793Z,70.44
2019-03-26T02:13:03.288Z,70.24
2019-03-26T02:15:37.368Z,70.43
2019-03-26T02:18:11.010Z,70.16
2019-03-26T02:20:44.747Z,70.02
2019-03-26T02:23:16.118Z,70.37
2019-03-26T02:25:47.474Z,70.32
2019-03-26T02:28:18.608Z,70.66
2019-03-26T02:30:51.817Z,70.63
2019-03-26T02:33:23.198Z,70.54
2019-03-26T02:35:57.489Z,70.58
2019-03-26T02:38:30.301Z,70.35
2019-03-26T02:41:01.812Z,70.12
2019-03-26T02:43:33.933Z,70.20
2019-03-26T02:46:07.935Z,70.24
2019-03-26T02:48:41.629Z,70.35
2019-03-26T02:51:12.652Z,70.44
2019-03-26T02:53:45.499Z,70.36
2019-03-26T02:56:22.258Z,69.97
2019-03-26T02:58:56.544Z,69.93
2019-03-26T03:01:28.113Z,70.42
2019-03-26T03:04:01.625Z,70.33
2019-03-26T03:06:32.736Z,70.16
2019-03-26T03:09:05.436Z,70.13
2019-03-26T03:11:36.497Z,70.58
2019-03-26T03:14:09.549Z,70.25
2019-03-26T03:16:41.183Z,70.35
2019-03-26T03:19:15.589Z,70.57
2019-03-26T03:21:45.173Z,70.71
2019-03-26T03:24:16.141Z,70.83
2019-03-26T03:26:47.277Z,71.10
2019-03-26T03:29:18.611Z,71.01
2019-03-26T03:31:49.799Z,70.92
2019-03-26T03:34:20.834Z,70.92
2019-03-26T03:40:02.082Z,70.87
2019-03-26T03:42:37.378Z,70.74
2019-03-26T03:45:09.297Z,70.60
2019-03-26T03:47:40.340Z,70.75
2019-03-26T03:50:11.309Z,70.77
2019-03-26T03:52:42.448Z,70.89
2019-03-26T03:55:13.430Z,71.33
2019-03-26T03:57:45.325Z,71.36
2019-03-26T04:00:32.139Z,71.27
2019-03-26T04:03:04.390Z,71.14
2019-03-26T04:05:35.577Z,71.33
2019-03-26T04:08:06.999Z,71.33
2019-03-26T04:10:39.043Z,71.20
2019-03-26T04:13:10.204Z,71.18
2019-03-26T04:15:41.188Z,71.47
2019-03-26T04:18:14.400Z,71.47
2019-03-26T04:20:48.041Z,71.40
2019-03-26T04:23:19.042Z,71.16
2019-03-26T04:25:50.022Z,71.25
2019-03-26T04:28:21.069Z,71.27
2019-03-26T04:30:52.519Z,71.18
2019-03-26T04:33:23.549Z,71.11
2019-03-26T04:35:55.635Z,71.20
2019-03-26T04:38:28.305Z,71.23
2019-03-26T04:40:59.395Z,71.13
2019-03-26T04:43:32.436Z,70.82
2019-03-26T04:46:05.606Z,71.09
2019-03-26T04:48:36.636Z,70.72
2019-03-26T04:51:08.604Z,70.44
2019-03-26T04:53:46.568Z,70.53
2019-03-26T04:56:17.598Z,70.38
2019-03-26T04:58:52.964Z,70.42
2019-03-26T05:01:24.310Z,70.80
2019-03-26T05:03:56.240Z,70.53
2019-03-26T05:06:37.901Z,70.48
2019-03-26T05:09:05.856Z,70.49
2019-03-26T05:11:37.036Z,70.24
2019-03-26T05:14:12.089Z,70.19
2019-03-26T05:16:48.249Z,70.21
2019-03-26T05:19:20.128Z,70.14
2019-03-26T05:21:51.251Z,70.09
2019-03-26T05:24:22.384Z,69.55
2019-03-26T05:26:53.436Z,69.54
2019-03-26T05:29:24.558Z,68.85
2019-03-26T05:31:56.002Z,68.79
2019-03-26T05:34:27.109Z,68.10
2019-03-26T05:37:04.022Z,68.07
2019-03-26T05:39:35.049Z,68.13
2019-03-26T05:42:07.072Z,68.32
2019-03-26T05:44:40.147Z,68.67
2019-03-26T05:47:11.245Z,68.90
2019-03-26T05:49:42.443Z,68.26
2019-03-26T05:52:13.587Z,67.85
2019-03-26T05:54:46.024Z,68.12
2019-03-26T05:57:17.059Z,67.84
2019-03-26T05:59:48.235Z,67.29
2019-03-26T06:02:19.219Z,67.46
2019-03-26T06:04:50.532Z,67.12
2019-03-26T06:07:37.769Z,66.33
2019-03-26T06:10:11.334Z,66.29
2019-03-26T06:12:43.333Z,66.08
2019-03-26T06:15:14.770Z,66.27
2019-03-26T06:17:46.951Z,66.20
2019-03-26T06:20:19.950Z,65.76
2019-03-26T06:22:51.026Z,65.08
2019-03-26T06:25:22.141Z,65.10
2019-03-26T06:27:54.095Z,64.89
2019-03-26T06:30:27.820Z,64.81
2019-03-26T06:32:58.905Z,64.96
2019-03-26T06:35:30.040Z,65.21
2019-03-26T06:38:01.109Z,64.45
2019-03-26T06:40:32.124Z,64.28
2019-03-26T06:43:03.217Z,64.80
2019-03-26T06:45:35.297Z,63.96
2019-03-26T06:48:08.432Z,63.67
2019-03-26T06:50:40.865Z,62.52
2019-03-26T06:53:12.916Z,62.20
2019-03-26T06:55:57.207Z,61.86
2019-03-26T06:58:29.251Z,62.89
2019-03-26T07:01:01.823Z,63.04
2019-03-26T07:03:35.467Z,63.03
2019-03-26T07:06:08.583Z,61.87
2019-03-26T07:08:41.095Z,61.86
2019-03-26T07:11:16.128Z,61.80
2019-03-26T07:13:47.140Z,62.37
2019-03-26T07:16:18.434Z,63.08
2019-03-26T07:18:50.584Z,63.35
2019-03-26T07:21:23.672Z,63.37
2019-03-26T07:23:54.818Z,63.89
2019-03-26T07:26:25.799Z,64.39
2019-03-26T07:28:58.438Z,63.91
2019-03-26T07:31:40.092Z,63.91
2019-03-26T07:34:18.967Z,64.16
2019-03-26T07:36:54.056Z,63.77
2019-03-26T07:39:27.225Z,63.20
2019-03-26T07:41:59.245Z,63.15
2019-03-26T07:44:34.840Z,62.74
2019-03-26T07:47:06.020Z,62.45
2019-03-26T07:49:37.765Z,61.88
2019-03-26T07:52:11.881Z,61.64
2019-03-26T07:54:46.483Z,61.36
2019-03-26T07:57:20.644Z,60.81
2019-03-26T07:59:53.752Z,60.47
2019-03-26T08:02:29.360Z,60.42
2019-03-26T08:05:01.304Z,60.07
2019-03-26T08:07:35.793Z,60.13
2019-03-26T08:10:08.466Z,60.04
2019-03-26T08:12:41.498Z,59.79
2019-03-26T08:15:12.795Z,59.73
2019-03-26T08:17:45.459Z,60.00
2019-03-26T08:20:16.806Z,60.22
2019-03-26T08:22:50.223Z,60.24
2019-03-26T08:25:29.393Z,60.65
2019-03-26T08:28:00.518Z,60.74
2019-03-26T08:30:31.662Z,60.21
2019-03-26T08:33:03.973Z,60.23
2019-03-26T08:35:38.238Z,59.22
2019-03-26T08:38:13.538Z,59.22
2019-03-26T08:40:45.215Z,58.32
2019-03-26T08:43:17.180Z,58.88
2019-03-26T08:45:48.544Z,58.55
2019-03-26T08:48:19.913Z,58.67
2019-03-26T08:50:50.935Z,58.26
2019-03-26T08:53:23.989Z,57.01
2019-03-26T08:55:58.635Z,56.48
2019-03-26T08:58:29.715Z,56.01
2019-03-26T09:01:00.902Z,55.95
2019-03-26T09:03:32.047Z,56.00
2019-03-26T09:06:04.974Z,56.11
2019-03-26T09:08:35.992Z,56.30
2019-03-26T09:11:06.992Z,56.34
2019-03-26T09:13:37.993Z,55.95
2019-03-26T09:16:09.152Z,55.57
2019-03-26T09:18:41.235Z,55.59
2019-03-26T09:21:13.606Z,55.97
2019-03-26T09:23:46.005Z,56.46
2019-03-26T09:26:17.098Z,55.76
2019-03-26T09:28:48.369Z,55.84
2019-03-26T09:31:19.731Z,55.94
2019-03-26T09:33:53.091Z,54.79
2019-03-26T09:36:24.184Z,54.70
2019-03-26T09:38:55.464Z,54.35
2019-03-26T09:41:26.645Z,53.88
2019-03-26T09:43:57.872Z,53.63
2019-03-26T09:46:29.037Z,54.25
2019-03-26T09:49:00.326Z,54.49
2019-03-26T09:51:32.018Z,54.23
2019-03-26T09:54:18.625Z,53.96
2019-03-26T09:56:49.760Z,54.09
2019-03-26T09:59:20.763Z,53.78
2019-03-26T10:01:51.912Z,53.70
2019-03-26T10:04:22.989Z,54.56
2019-03-26T10:06:54.145Z,54.80
2019-03-26T10:09:26.444Z,54.50
2019-03-26T10:11:57.587Z,54.28
2019-03-26T10:14:32.105Z,54.15
2019-03-26T10:17:03.507Z,54.21
2019-03-26T10:19:34.659Z,53.87
2019-03-26T10:22:05.749Z,53.30
2019-03-26T10:24:37.973Z,53.54
2019-03-26T10:27:09.184Z,52.84
2019-03-26T10:29:40.330Z,52.31
2019-03-26T10:32:15.367Z,51.46
2019-03-26T10:34:47.262Z,52.54
2019-03-26T10:37:18.568Z,52.54
2019-03-26T10:39:49.760Z,52.27
2019-03-26T10:42:20.828Z,52.14
2019-03-26T10:44:51.861Z,52.12
2019-03-26T10:47:23.052Z,51.36
2019-03-26T10:49:54.257Z,51.29
2019-03-26T10:52:25.404Z,51.52
2019-03-26T10:54:56.443Z,51.31
2019-03-26T10:57:29.254Z,50.94
2019-03-26T11:00:00.490Z,51.06
2019-03-26T11:02:32.403Z,50.64
2019-03-26T11:05:04.895Z,50.61
2019-03-26T11:07:36.088Z,50.08
2019-03-26T11:10:09.083Z,50.23
2019-03-26T11:12:40.284Z,51.53
2019-03-26T11:15:11.863Z,51.25
2019-03-26T11:17:43.873Z,51.23
2019-03-26T11:20:15.048Z,50.76
2019-03-26T11:22:46.206Z,50.40
2019-03-26T11:25:17.378Z,49.34
2019-03-26T11:27:49.039Z,48.96
2019-03-26T11:30:20.574Z,49.28
2019-03-26T11:32:51.687Z,48.88
2019-03-26T11:35:27.044Z,48.46
2019-03-26T11:37:58.538Z,47.57
2019-03-26T11:40:29.837Z,47.25
2019-03-26T11:43:03.643Z,47.36
2019-03-26T11:45:34.724Z,47.66
2019-03-26T11:48:05.901Z,47.62
2019-03-26T11:50:38.474Z,46.99
2019-03-26T11:53:09.485Z,46.57
2019-03-26T11:55:43.408Z,46.21
2019-03-26T11:58:14.619Z,46.40
2019-03-26T12:00:45.978Z,46.22
2019-03-26T12:03:17.378Z,46.30
2019-03-26T12:05:48.476Z,46.05
2019-03-26T12:08:19.794Z,45.83
2019-03-26T12:10:50.774Z,45.68
2019-03-26T12:13:21.867Z,45.37
2019-03-26T12:15:52.857Z,43.37
2019-03-26T12:18:23.877Z,43.64
2019-03-26T12:20:54.957Z,45.02
2019-03-26T12:23:26.166Z,45.50
2019-03-26T12:25:57.295Z,43.50
2019-03-26T12:28:28.445Z,43.64
2019-03-26T12:30:59.446Z,43.56
2019-03-26T12:33:30.668Z,44.05
2019-03-26T12:36:02.706Z,44.88
2019-03-26T12:38:33.864Z,43.58
2019-03-26T12:41:05.008Z,43.61
2019-03-26T12:43:38.005Z,43.46
2019-03-26T12:46:09.045Z,43.68
2019-03-26T12:48:40.106Z,42.44
2019-03-26T12:51:11.112Z,42.30
2019-03-26T12:53:42.283Z,41.00
2019-03-26T12:56:24.009Z,40.50
2019-03-26T12:58:55.113Z,40.35
2019-03-26T13:01:26.127Z,40.03
2019-03-26T13:03:57.495Z,40.12
2019-03-26T13:06:28.736Z,40.04
2019-03-26T13:08:59.875Z,39.31
2019-03-26T13:11:31.018Z,39.57
2019-03-26T13:14:02.090Z,39.17
2019-03-26T13:16:33.212Z,39.26
2019-03-26T13:19:04.588Z,39.52
2019-03-26T13:21:37.519Z,40.26
2019-03-26T13:24:11.278Z,40.46
2019-03-26T13:26:41.306Z,39.78
2019-03-26T13:29:12.443Z,39.58
2019-03-26T13:31:43.576Z,39.71
2019-03-26T13:34:16.235Z,39.72
2019-03-26T13:36:57.198Z,39.56
2019-03-26T13:39:30.266Z,39.84
2019-03-26T13:42:02.398Z,40.42
2019-03-26T13:44:33.525Z,39.64
2019-03-26T13:47:04.655Z,41.62
2019-03-26T13:49:40.112Z,41.84
2019-03-26T13:52:11.192Z,41.19
2019-03-26T13:54:42.250Z,40.79
2019-03-26T13:57:13.379Z,40.70
2019-03-26T13:59:44.560Z,40.51
2019-03-26T14:02:15.724Z,40.53
2019-03-26T14:04:46.898Z,41.05
2019-03-26T14:07:18.013Z,40.94
2019-03-26T14:09:49.023Z,41.15
2019-03-26T14:12:20.108Z,41.09
2019-03-26T14:14:51.296Z,41.38
2019-03-26T14:17:23.323Z,41.03
2019-03-26T14:19:54.342Z,41.65
2019-03-26T14:22:25.476Z,41.01
2019-03-26T14:24:57.690Z,41.17
2019-03-26T14:27:29.775Z,41.18
2019-03-26T14:30:00.825Z,40.99
2019-03-26T14:32:31.979Z,41.38
2019-03-26T14:35:04.690Z,41.78
2019-03-26T14:37:35.981Z,43.16
2019-03-26T14:40:07.671Z,42.96
2019-03-26T14:42:39.050Z,43.35
2019-03-26T14:45:10.119Z,42.18
2019-03-26T14:47:44.443Z,42.34
2019-03-26T14:50:15.994Z,42.38
2019-03-26T14:52:47.244Z,42.96
2019-03-26T14:55:18.423Z,42.13
2019-03-26T14:57:50.526Z,42.27
2019-03-26T15:00:21.706Z,42.50
2019-03-26T15:02:53.045Z,42.54
2019-03-26T15:05:24.044Z,42.04
2019-03-26T15:07:55.265Z,41.56
2019-03-26T15:10:26.268Z,41.65
2019-03-26T15:12:57.576Z,41.76
2019-03-26T15:15:28.864Z,42.06
2019-03-26T15:18:01.504Z,41.83
2019-03-26T15:20:32.656Z,41.82
2019-03-26T15:23:04.130Z,41.94
2019-03-26T15:25:35.315Z,42.12
2019-03-26T15:28:06.459Z,41.89
2019-03-26T15:30:38.900Z,41.66
2019-03-26T15:33:10.197Z,41.75
2019-03-26T15:35:41.239Z,41.81
2019-03-26T15:38:12.251Z,41.26
2019-03-26T15:40:43.280Z,41.33
2019-03-26T15:43:14.471Z,41.30
2019-03-26T15:45:45.537Z,41.50
2019-03-26T15:48:16.688Z,41.40
2019-03-26T15:50:47.721Z,41.22
2019-03-26T15:53:19.141Z,40.84
2019-03-26T15:55:50.211Z,41.02
2019-03-26T15:58:22.691Z,42.26
2019-03-26T16:00:53.698Z,46.02
2019-03-26T16:03:24.714Z,47.59
2019-03-26T16:05:56.574Z,48.76
2019-03-26T16:08:32.239Z,49.36
2019-03-26T16:11:03.260Z,49.78
2019-03-26T16:13:35.862Z,50.21
2019-03-26T16:16:07.279Z,50.52
2019-03-26T16:18:39.709Z,51.03
2019-03-26T16:21:10.705Z,51.55
2019-03-26T16:23:41.763Z,52.12
2019-03-26T16:26:12.798Z,52.38
2019-03-26T16:28:48.044Z,52.58
2019-03-26T16:31:19.286Z,52.95
2019-03-26T16:33:50.572Z,52.75
2019-03-26T16:36:21.932Z,53.19
2019-03-26T16:38:53.228Z,53.13
2019-03-26T16:41:24.438Z,53.43
2019-03-26T16:43:55.521Z,53.53
2019-03-26T16:46:26.704Z,53.96
2019-03-26T16:48:58.832Z,54.71
2019-03-26T16:51:30.091Z,55.06
2019-03-26T16:54:01.408Z,55.36
2019-03-26T16:56:33.689Z,55.91
2019-03-26T16:59:05.948Z,56.00
2019-03-26T17:01:37.881Z,56.75
2019-03-26T17:04:08.899Z,57.09
2019-03-26T17:06:40.097Z,56.83
2019-03-26T17:09:11.355Z,56.92
2019-03-26T17:11:42.543Z,57.49
2019-03-26T17:14:13.562Z,58.18
2019-03-26T17:16:44.878Z,58.48
2019-03-26T17:19:16.081Z,58.61
2019-03-26T17:21:48.308Z,58.36
2019-03-26T17:24:19.524Z,58.14
2019-03-26T17:26:50.567Z,57.98
2019-03-26T17:29:21.701Z,58.12
2019-03-26T17:31:53.096Z,58.12
2019-03-26T17:34:24.296Z,58.36
2019-03-26T17:36:55.497Z,58.32
2019-03-26T17:39:27.580Z,58.19
2019-03-26T17:42:00.333Z,57.89
2019-03-26T17:44:31.728Z,57.93
2019-03-26T17:47:02.810Z,57.98
2019-03-26T17:49:36.166Z,57.75
2019-03-26T17:52:07.590Z,57.94
2019-03-26T17:54:38.778Z,58.15
2019-03-26T17:57:10.177Z,58.32
2019-03-26T17:59:41.338Z,58.38
2019-03-26T18:02:12.550Z,58.47
2019-03-26T18:04:43.841Z,58.71
2019-03-26T18:07:15.101Z,58.94
2019-03-26T18:09:47.969Z,59.04
2019-03-26T18:12:30.326Z,59.31
2019-03-26T18:14:54.123Z,59.24
2019-03-26T18:17:25.309Z,59.39
2019-03-26T18:19:57.118Z,59.18
2019-03-26T18:22:28.535Z,59.04
2019-03-26T18:25:01.226Z,59.13
2019-03-26T18:27:32.302Z,58.93
2019-03-26T18:30:05.061Z,59.08
2019-03-26T18:32:36.137Z,59.05
2019-03-26T18:35:07.139Z,58.77
2019-03-26T18:37:39.428Z,58.59
2019-03-26T18:40:10.757Z,58.78
2019-03-26T18:42:44.368Z,58.65
2019-03-26T18:45:14.987Z,58.61
2019-03-26T18:47:45.995Z,58.32
2019-03-26T18:50:17.120Z,57.96
2019-03-26T18:52:49.254Z,57.76
2019-03-26T18:55:20.509Z,57.86
2019-03-26T18:57:51.568Z,57.79
2019-03-26T19:00:33.970Z,57.91
2019-03-26T19:03:05.751Z,57.89
2019-03-26T19:05:36.789Z,57.89
2019-03-26T19:08:08.895Z,58.08
2019-03-26T19:10:40.960Z,58.13
2019-03-26T19:13:19.092Z,57.79
2019-03-26T19:15:46.386Z,57.84
2019-03-26T19:18:17.503Z,57.97
2019-03-26T19:21:01.089Z,58.27
2019-03-26T19:23:21.655Z,58.43
2019-03-26T19:25:52.987Z,58.48
2019-03-26T19:28:24.264Z,58.61
2019-03-26T19:30:57.414Z,58.18
2019-03-26T19:33:31.766Z,58.32
2019-03-26T19:36:03.056Z,58.10
2019-03-26T19:38:36.081Z,57.99
2019-03-26T19:41:10.248Z,58.46
2019-03-26T19:43:41.397Z,58.21
2019-03-26T19:46:12.838Z,58.06
2019-03-26T19:48:44.237Z,58.30
2019-03-26T19:51:15.699Z,58.35
2019-03-26T19:53:46.882Z,58.51
2019-03-26T19:56:18.100Z,58.46
2019-03-26T19:58:49.226Z,58.63
2019-03-26T20:01:20.243Z,58.35
2019-03-26T20:03:51.402Z,58.41
2019-03-26T20:06:23.428Z,58.41
2019-03-26T20:08:54.589Z,58.12
2019-03-26T20:11:25.654Z,58.10
2019-03-26T20:13:56.920Z,57.79
2019-03-26T20:16:41.054Z,57.36
2019-03-26T20:19:01.053Z,57.80
2019-03-26T20:21:32.146Z,57.81
2019-03-26T20:24:03.512Z,57.79
2019-03-26T20:26:34.625Z,58.07
2019-03-26T20:29:05.813Z,58.15
2019-03-26T20:31:37.026Z,58.08
2019-03-26T20:34:08.113Z,57.90
2019-03-26T20:36:40.216Z,57.83
2019-03-26T20:39:11.476Z,57.96
2019-03-26T20:41:43.115Z,57.75
2019-03-26T20:44:14.299Z,57.65
2019-03-26T20:46:45.436Z,57.68
2019-03-26T20:49:16.823Z,57.75
2019-03-26T20:51:47.916Z,57.76
2019-03-26T20:54:19.633Z,57.87
2019-03-26T20:56:53.080Z,57.97
2019-03-26T20:59:24.177Z,57.72
2019-03-26T21:01:57.508Z,57.67
2019-03-26T21:04:28.777Z,57.73
2019-03-26T21:06:59.942Z,57.74
2019-03-26T21:09:31.047Z,57.35
2019-03-26T21:12:02.326Z,57.43
2019-03-26T21:14:33.424Z,57.54
2019-03-26T21:17:04.756Z,57.19
2019-03-26T21:19:36.084Z,57.30
2019-03-26T21:22:07.131Z,57.35
2019-03-26T21:24:38.247Z,57.33
2019-03-26T21:27:09.362Z,57.25
2019-03-26T21:29:40.551Z,57.47
2019-03-26T21:32:11.821Z,57.22
2019-03-26T21:34:45.228Z,57.19
2019-03-26T21:37:16.469Z,57.52
2019-03-26T21:39:47.659Z,57.46
2019-03-26T21:42:20.853Z,57.69
2019-03-26T21:44:53.625Z,57.89
2019-03-26T21:47:24.857Z,57.70
2019-03-26T21:49:56.019Z,57.73
2019-03-26T21:52:27.108Z,57.74
2019-03-26T21:54:58.114Z,57.65
2019-03-26T21:57:29.457Z,57.46
2019-03-26T22:00:00.578Z,57.16
2019-03-26T22:02:33.872Z,57.04
2019-03-26T22:05:07.396Z,57.25
2019-03-26T22:07:38.514Z,57.62
2019-03-26T22:10:09.578Z,57.65
2019-03-26T22:12:40.639Z,57.67
2019-03-26T22:15:12.325Z,57.69
2019-03-26T22:17:43.557Z,58.04
2019-03-26T22:20:14.638Z,58.32
2019-03-26T22:22:47.898Z,58.59
2019-03-26T22:25:19.345Z,58.62
2019-03-26T22:27:50.415Z,58.25
2019-03-26T22:30:21.560Z,58.18
2019-03-26T22:32:52.675Z,57.71
2019-03-26T22:35:23.787Z,58.04
2019-03-26T22:37:54.927Z,58.26
2019-03-26T22:40:26.164Z,58.24
2019-03-26T22:42:57.231Z,58.61
2019-03-26T22:45:28.335Z,58.60
2019-03-26T22:47:59.658Z,58.81
2019-03-26T22:50:30.743Z,59.13
2019-03-26T22:53:01.742Z,59.35
2019-03-26T22:55:33.022Z,59.58
2019-03-26T22:58:04.207Z,59.66
2019-03-26T23:00:36.038Z,59.72
2019-03-26T23:03:08.815Z,59.48
2019-03-26T23:05:39.979Z,59.55
2019-03-26T23:08:11.197Z,59.70
2019-03-26T23:10:43.688Z,59.76
2019-03-26T23:13:15.022Z,59.76
2019-03-26T23:15:46.186Z,60.02
2019-03-26T23:18:17.524Z,60.28
2019-03-26T23:20:50.985Z,60.30
2019-03-26T23:23:23.127Z,60.44
2019-03-26T23:25:54.492Z,60.20
2019-03-26T23:28:25.646Z,60.48
2019-03-26T23:30:56.702Z,60.68
2019-03-26T23:33:27.920Z,60.88
2019-03-26T23:35:59.102Z,60.75
2019-03-26T23:38:31.032Z,61.19
2019-03-26T23:41:02.205Z,61.31
2019-03-26T23:43:34.546Z,61.33
2019-03-26T23:46:06.717Z,61.43
2019-03-26T23:48:38.791Z,61.61
2019-03-26T23:51:09.839Z,61.28
2019-03-26T23:53:41.238Z,61.26
2019-03-26T23:56:12.372Z,61.46
2019-03-26T23:58:43.659Z,61.70
